Terminal Aerodrome Forecast
Issued by NWS Cleveland, OH

Home | Current Version | Previous Version | Graphics & Text | Print | Product List | Glossary Off
Versions: 1 2 3 4 5 6 7 8 9 10 11 12 13 14 15 16 17 18 19 20 21 22 23 24 25 26

000
FTUS41 KCLE 250100 AAB
TAFTOL
TAF AMD
KTOL 250159Z 2502/2524 22004KT 6SM BR BKN035
      TEMPO 2503/2507 5SM BR
     FM250700 22006KT 4SM BR SCT020 BKN080
      TEMPO 2507/2511 BKN020
     FM251400 23012KT P6SM BKN012 OVC025
     FM251800 27015G22KT P6SM SCT025=

USA.gov is the U.S. government's official web portal to all federal, state and local government web resources and services.